Reliance, South Dakota
Current Conditions -  °F | °C
As of 8:35 AM on Saturday 22 Nov 2014 (Local Time) from K9V9 Reporting Station
Clear Clear  
Wind Chill: 22°   Ceiling: Unl
Heat Index: 22°   Visibility: 10mi
Dew Point: 21°   Wind: 3mph
Humidity: 93%   Direction: 180°S
Pressure: 29.64"   Gusts: NA
Location:  43.88°N, 99.6°W
Report Text: K9V9 221435Z AUTO 18003KT 10SM CLR M05/M06 A2964 RMK AO2 T10531062
Loading
Personal Weather Stations






























Interactive Weather Map New forecast layout! Learn more

10-Day Weather Forecast

Advertisements
Track Severe Weather on mobile